Time;durP1;ratioP1;P1;durP2;ratioP2;P2;SDS_P1;SDS_P2;PMS_P1;PMS_P2;Temp;Humidity;BMP_temperature;BMP_pressure;BME280_temperature;BME280_humidity;BME280_pressure;Samples;Min_cycle;Max_cycle;Signal;HPM_P1;HPM_P2
2024/03/01 00:01:11;;;;;;;21.93;16.03;;;6.60;99.90;;;;;;5025682;28;20582;-61
2024/03/01 00:03:39;;;;;;;27.17;17.53;;;6.60;99.90;;;;;;5023188;28;20592;-61
2024/03/01 00:06:09;;;;;;;24.13;17.40;;;6.60;99.90;;;;;;5032962;28;20493;-60
2024/03/01 00:08:36;;;;;;;24.40;17.73;;;6.60;99.90;;;;;;5032070;28;20572;-62
2024/03/01 00:11:05;;;;;;;27.40;17.50;;;6.50;99.90;;;;;;5032593;28;20502;-62
2024/03/01 00:13:33;;;;;;;24.50;17.90;;;6.50;99.90;;;;;;5035270;28;20479;-61
2024/03/01 00:16:01;;;;;;;24.43;17.33;;;6.50;99.90;;;;;;5031030;28;20475;-61
2024/03/01 00:18:29;;;;;;;25.87;17.83;;;6.40;99.90;;;;;;5025733;28;20852;-64
2024/03/01 00:20:57;;;;;;;22.63;16.60;;;6.40;99.90;;;;;;5030682;28;20473;-61
2024/03/01 00:23:27;;;;;;;24.53;17.20;;;6.40;99.90;;;;;;5032700;28;20498;-61
2024/03/01 00:25:55;;;;;;;27.60;18.30;;;6.40;99.90;;;;;;5030799;28;20589;-61
2024/03/01 00:28:23;;;;;;;23.70;17.57;;;6.30;99.90;;;;;;5032236;28;20586;-62
2024/03/01 00:30:51;;;;;;;24.20;17.10;;;6.30;99.90;;;;;;5027739;28;20470;-61
2024/03/01 00:33:19;;;;;;;24.17;17.33;;;6.30;99.90;;;;;;5030817;28;20497;-61
2024/03/01 00:35:47;;;;;;;27.13;18.40;;;6.30;99.90;;;;;;5033954;28;20482;-61
2024/03/01 00:38:15;;;;;;;26.70;18.43;;;6.30;99.90;;;;;;5034120;28;20487;-62
2024/03/01 00:40:45;;;;;;;22.30;17.07;;;6.30;99.90;;;;;;5034903;28;20505;-60
2024/03/01 00:43:13;;;;;;;24.50;17.77;;;6.30;99.90;;;;;;5035289;28;20466;-62
2024/03/01 00:45:41;;;;;;;27.00;18.70;;;6.30;99.90;;;;;;5035997;28;20470;-61
2024/03/01 00:48:10;;;;;;;25.13;17.03;;;6.20;99.90;;;;;;5035393;28;20498;-62
2024/03/01 00:50:38;;;;;;;26.17;18.40;;;6.20;99.90;;;;;;5037831;28;20555;-61
2024/03/01 00:53:08;;;;;;;26.27;18.80;;;6.20;99.90;;;;;;5034935;28;20495;-61
2024/03/01 00:55:37;;;;;;;26.77;18.00;;;6.10;99.90;;;;;;5035413;28;20482;-62
2024/03/01 00:58:07;;;;;;;24.90;17.67;;;6.10;99.90;;;;;;5035918;28;20605;-61
2024/03/01 01:00:36;;;;;;;25.67;17.30;;;6.10;99.90;;;;;;5037521;28;20890;-62
2024/03/01 01:03:04;;;;;;;24.23;18.40;;;6.00;99.90;;;;;;5031998;28;21003;-61
2024/03/01 01:05:32;;;;;;;23.67;17.23;;;6.00;99.90;;;;;;5034568;28;20557;-60
2024/03/01 01:08:00;;;;;;;24.70;17.83;;;6.00;99.90;;;;;;5036510;28;20557;-60
2024/03/01 01:10:28;;;;;;;27.57;19.57;;;6.00;99.90;;;;;;5034527;28;21110;-61
2024/03/01 01:12:56;;;;;;;25.90;18.87;;;6.00;99.90;;;;;;5034817;28;20895;-60
2024/03/01 01:15:26;;;;;;;26.37;18.43;;;6.00;99.90;;;;;;5033805;28;20461;-60
2024/03/01 01:17:54;;;;;;;28.10;19.23;;;6.00;99.90;;;;;;5031830;28;20549;-61
2024/03/01 01:20:22;;;;;;;29.30;20.27;;;6.00;99.90;;;;;;5036269;28;20983;-61
2024/03/01 01:22:50;;;;;;;27.13;18.70;;;6.00;99.90;;;;;;5030119;28;20507;-62
2024/03/01 01:25:19;;;;;;;24.10;18.50;;;5.90;99.90;;;;;;5032336;28;20549;-61
2024/03/01 01:27:47;;;;;;;26.90;18.87;;;5.90;99.90;;;;;;5036897;28;20481;-61
2024/03/01 01:30:15;;;;;;;27.27;19.37;;;5.90;99.90;;;;;;5031122;28;20495;-62
2024/03/01 01:32:45;;;;;;;26.57;18.90;;;5.80;99.90;;;;;;5033417;28;20471;-61
2024/03/01 01:35:13;;;;;;;28.10;18.60;;;5.80;99.90;;;;;;5033995;28;20474;-63
2024/03/01 01:37:41;;;;;;;27.90;19.10;;;5.80;99.90;;;;;;5035036;28;20521;-63
2024/03/01 01:40:11;;;;;;;27.97;18.43;;;5.80;99.90;;;;;;5037343;28;20604;-62
2024/03/01 01:42:40;;;;;;;24.67;18.20;;;5.70;99.90;;;;;;5034561;28;20459;-61
2024/03/01 01:45:08;;;;;;;26.63;19.50;;;5.70;99.90;;;;;;5036160;28;20474;-61
2024/03/01 01:47:37;;;;;;;30.20;20.27;;;5.70;99.90;;;;;;5033579;28;20481;-60
2024/03/01 01:50:08;;;;;;;28.53;19.10;;;5.70;99.90;;;;;;5036323;28;20816;-61
2024/03/01 01:52:37;;;;;;;26.77;19.20;;;5.70;99.90;;;;;;5036443;28;20466;-60
2024/03/01 01:55:06;;;;;;;30.43;20.40;;;5.60;99.90;;;;;;5035316;28;20471;-61
2024/03/01 01:57:34;;;;;;;27.07;20.50;;;5.60;99.90;;;;;;5035229;28;20549;-60
2024/03/01 02:00:06;;;;;;;33.37;20.10;;;5.60;99.90;;;;;;5030510;28;20995;-60
2024/03/01 02:02:35;;;;;;;30.63;21.17;;;5.60;99.90;;;;;;5033365;28;20551;-62
2024/03/01 02:05:04;;;;;;;28.27;19.00;;;5.50;99.90;;;;;;5034798;28;21555;-61
2024/03/01 02:07:33;;;;;;;29.47;19.17;;;5.50;99.90;;;;;;5033874;28;20573;-62
2024/03/01 02:10:09;;;;;;;27.47;18.57;;;5.50;99.90;;;;;;5035262;28;20506;-62
2024/03/01 02:12:37;;;;;;;29.90;19.20;;;5.50;99.90;;;;;;5032293;28;20482;-61
2024/03/01 02:15:08;;;;;;;25.23;18.13;;;5.40;99.90;;;;;;5035001;28;20565;-62
2024/03/01 02:17:36;;;;;;;28.67;19.23;;;5.40;99.90;;;;;;5031096;28;20558;-61
2024/03/01 02:20:07;;;;;;;30.53;20.40;;;5.30;99.90;;;;;;5030874;28;20491;-61
2024/03/01 02:22:39;;;;;;;28.57;20.40;;;5.30;99.90;;;;;;5036564;28;20550;-62
2024/03/01 02:25:09;;;;;;;29.70;20.27;;;5.30;99.90;;;;;;5039015;28;20482;-62
2024/03/01 02:27:37;;;;;;;30.83;20.20;;;5.30;99.90;;;;;;5031740;28;20483;-61
2024/03/01 02:30:09;;;;;;;30.33;20.83;;;5.20;99.90;;;;;;5032509;28;20494;-61
2024/03/01 02:32:37;;;;;;;29.60;19.73;;;5.20;99.90;;;;;;5034541;28;20470;-61
2024/03/01 02:35:06;;;;;;;28.80;19.90;;;5.20;99.90;;;;;;5037847;28;20970;-61
2024/03/01 02:37:34;;;;;;;26.63;19.13;;;5.20;99.90;;;;;;5036987;28;21079;-61
2024/03/01 02:40:03;;;;;;;31.30;20.17;;;5.10;99.90;;;;;;5038156;28;20493;-62
2024/03/01 02:42:34;;;;;;;27.13;19.53;;;5.10;99.90;;;;;;5036730;28;20561;-61
2024/03/01 02:45:03;;;;;;;28.50;20.53;;;5.10;99.90;;;;;;5039448;28;20523;-61
2024/03/01 02:47:31;;;;;;;29.27;19.90;;;5.10;99.90;;;;;;5033533;28;20594;-62
2024/03/01 02:49:59;;;;;;;30.97;20.10;;;5.10;99.90;;;;;;5036037;28;20491;-61
2024/03/01 02:52:27;;;;;;;28.23;19.23;;;5.00;99.90;;;;;;5035402;28;20475;-61
2024/03/01 02:54:56;;;;;;;29.73;19.63;;;5.00;99.90;;;;;;5033935;28;20503;-60
2024/03/01 02:57:24;;;;;;;31.40;20.60;;;5.00;99.90;;;;;;5035781;28;20493;-62
2024/03/01 02:59:54;;;;;;;32.60;20.20;;;5.00;99.90;;;;;;5037773;28;20994;-61
2024/03/01 03:02:22;;;;;;;30.07;20.07;;;5.00;99.90;;;;;;5033436;28;20585;-62
2024/03/01 03:04:50;;;;;;;28.00;20.10;;;4.90;99.90;;;;;;5035187;28;20854;-60
2024/03/01 03:07:18;;;;;;;28.70;19.93;;;4.90;99.90;;;;;;5035044;28;20815;-63
2024/03/01 03:09:46;;;;;;;27.47;19.40;;;4.90;99.90;;;;;;5033634;28;20491;-60
2024/03/01 03:12:14;;;;;;;27.93;18.90;;;4.90;99.90;;;;;;5036094;28;20978;-59
2024/03/01 03:14:42;;;;;;;28.83;21.00;;;4.90;99.90;;;;;;5035223;28;20477;-61
2024/03/01 03:17:12;;;;;;;25.20;18.37;;;4.90;99.90;;;;;;5035264;28;20912;-60
2024/03/01 03:19:42;;;;;;;29.73;19.63;;;4.90;99.90;;;;;;5033753;28;21058;-61
2024/03/01 03:22:10;;;;;;;30.63;20.00;;;4.90;99.90;;;;;;5038432;28;20979;-60
2024/03/01 03:24:38;;;;;;;28.27;19.70;;;4.90;99.90;;;;;;5034314;28;20474;-62
2024/03/01 03:27:06;;;;;;;30.70;20.63;;;4.80;99.90;;;;;;5035892;28;20488;-62
2024/03/01 03:29:34;;;;;;;26.53;19.43;;;4.80;99.90;;;;;;5033486;28;20519;-63
2024/03/01 03:32:03;;;;;;;26.73;20.00;;;4.70;99.90;;;;;;5034302;28;20577;-62
2024/03/01 03:34:33;;;;;;;30.03;19.87;;;4.70;99.90;;;;;;5036167;28;20986;-62
2024/03/01 03:37:01;;;;;;;29.60;20.33;;;4.70;99.90;;;;;;5034907;28;20518;-62
2024/03/01 03:39:29;;;;;;;28.87;20.00;;;4.70;99.90;;;;;;5033887;28;20486;-62
2024/03/01 03:41:57;;;;;;;28.13;18.80;;;4.70;99.90;;;;;;5034347;28;20495;-62
2024/03/01 03:44:26;;;;;;;29.77;19.77;;;4.70;99.90;;;;;;5034927;28;20561;-63
2024/03/01 03:46:54;;;;;;;32.00;21.60;;;4.70;99.90;;;;;;5033631;28;20522;-62
2024/03/01 03:49:23;;;;;;;30.47;20.70;;;4.70;99.90;;;;;;5035711;28;20520;-61
2024/03/01 03:51:52;;;;;;;29.43;19.60;;;4.70;99.90;;;;;;5032114;28;20487;-61
2024/03/01 03:54:20;;;;;;;27.47;20.37;;;4.60;99.90;;;;;;5034516;28;20480;-61
2024/03/01 03:56:48;;;;;;;32.17;20.50;;;4.60;99.90;;;;;;5035021;28;20557;-61
2024/03/01 03:59:16;;;;;;;28.83;19.80;;;4.60;99.90;;;;;;5035954;28;20527;-61
2024/03/01 04:01:44;;;;;;;27.87;19.07;;;4.60;99.90;;;;;;5030033;28;20463;-61
2024/03/01 04:04:12;;;;;;;27.40;20.30;;;4.60;99.90;;;;;;5030954;28;20499;-61
2024/03/01 04:06:41;;;;;;;27.03;19.63;;;4.60;99.90;;;;;;5035059;28;20484;-62
2024/03/01 04:09:10;;;;;;;28.93;19.13;;;4.60;99.90;;;;;;5034028;28;20586;-62
2024/03/01 04:11:40;;;;;;;31.23;21.60;;;4.60;99.90;;;;;;5035255;28;20493;-61
2024/03/01 04:14:10;;;;;;;32.20;20.63;;;4.60;99.90;;;;;;5037061;28;20546;-62
2024/03/01 04:16:38;;;;;;;28.37;20.40;;;4.60;99.90;;;;;;5031743;28;20597;-63
2024/03/01 04:19:08;;;;;;;25.40;18.03;;;4.60;99.90;;;;;;5030647;28;20571;-62
2024/03/01 04:21:38;;;;;;;28.60;19.70;;;4.60;99.90;;;;;;5032750;28;20466;-62
2024/03/01 04:24:09;;;;;;;26.97;19.50;;;4.50;99.90;;;;;;5033692;28;21044;-62
2024/03/01 04:26:39;;;;;;;29.73;20.20;;;4.50;99.90;;;;;;5031958;28;20927;-62
2024/03/01 04:29:09;;;;;;;28.07;22.03;;;4.50;99.90;;;;;;5021490;28;20505;-63
2024/03/01 04:31:38;;;;;;;28.80;19.53;;;4.50;99.90;;;;;;5028141;28;20589;-61
2024/03/01 04:34:06;;;;;;;31.23;21.47;;;4.50;99.90;;;;;;5032190;28;20493;-64
2024/03/01 04:36:36;;;;;;;30.00;20.27;;;4.50;99.90;;;;;;5034599;28;20486;-63
2024/03/01 04:39:05;;;;;;;27.47;20.17;;;4.50;99.90;;;;;;5032633;28;20866;-62
2024/03/01 04:41:33;;;;;;;29.30;20.47;;;4.50;99.90;;;;;;5029498;28;22389;-62
2024/03/01 04:44:03;;;;;;;31.23;20.53;;;4.50;99.90;;;;;;5036775;28;20502;-62
2024/03/01 04:46:30;;;;;;;27.97;19.43;;;4.50;99.90;;;;;;5034016;28;20521;-61
2024/03/01 04:48:59;;;;;;;29.73;19.67;;;4.50;99.90;;;;;;5032519;28;20491;-63
2024/03/01 04:51:28;;;;;;;27.30;19.73;;;4.50;99.90;;;;;;5033467;28;20529;-62
2024/03/01 04:53:56;;;;;;;32.57;20.67;;;4.50;99.90;;;;;;5038756;28;20894;-62
2024/03/01 04:56:24;;;;;;;29.20;19.67;;;4.40;99.90;;;;;;5032877;28;20519;-62
2024/03/01 04:58:52;;;;;;;31.63;21.57;;;4.40;99.90;;;;;;5032975;28;20601;-63
2024/03/01 05:01:22;;;;;;;29.10;19.40;;;4.40;99.90;;;;;;5030418;28;20507;-62
2024/03/01 05:03:51;;;;;;;30.70;20.43;;;4.40;99.90;;;;;;5034838;28;20530;-62
2024/03/01 05:06:19;;;;;;;31.07;21.60;;;4.40;99.90;;;;;;5037916;28;20478;-62
2024/03/01 05:08:47;;;;;;;29.67;19.57;;;4.40;99.90;;;;;;5033171;28;20760;-63
2024/03/01 05:11:17;;;;;;;28.30;20.40;;;4.40;99.90;;;;;;5033266;28;20593;-62
2024/03/01 05:13:45;;;;;;;30.70;20.00;;;4.30;99.90;;;;;;5032093;28;20482;-62
2024/03/01 05:16:14;;;;;;;30.87;19.47;;;4.30;99.90;;;;;;5034688;28;21126;-62
2024/03/01 05:18:44;;;;;;;29.70;19.83;;;4.30;99.90;;;;;;5031664;28;20478;-63
2024/03/01 05:21:12;;;;;;;30.80;20.57;;;4.30;99.90;;;;;;5034243;28;20467;-61
2024/03/01 05:23:40;;;;;;;27.23;19.17;;;4.30;99.90;;;;;;5033889;28;20471;-63
2024/03/01 05:26:08;;;;;;;30.03;21.43;;;4.30;99.90;;;;;;5037505;28;20562;-62
2024/03/01 05:28:37;;;;;;;30.40;19.33;;;4.30;99.90;;;;;;5038369;28;20502;-63
2024/03/01 05:31:05;;;;;;;31.97;19.50;;;4.30;99.90;;;;;;5032506;28;20657;-62
2024/03/01 05:33:49;;;;;;;29.77;19.80;;;4.30;99.90;;;;;;5032379;28;20537;-62
2024/03/01 05:36:17;;;;;;;30.40;20.70;;;4.30;99.90;;;;;;5036674;28;20541;-63
2024/03/01 05:38:45;;;;;;;28.77;19.70;;;4.30;99.90;;;;;;5028047;28;21929;-63
2024/03/01 05:41:13;;;;;;;28.37;20.60;;;4.30;99.90;;;;;;5036123;28;20460;-63
2024/03/01 05:43:41;;;;;;;31.37;21.10;;;4.30;99.90;;;;;;5034103;28;20549;-63
2024/03/01 05:46:15;;;;;;;30.83;20.70;;;4.30;99.90;;;;;;5033077;28;20874;-63
2024/03/01 05:48:45;;;;;;;32.93;20.53;;;4.30;99.90;;;;;;5035060;28;20509;-62
2024/03/01 05:51:15;;;;;;;27.87;19.50;;;4.30;99.90;;;;;;5034651;28;20501;-62
2024/03/01 05:53:43;;;;;;;28.90;19.40;;;4.30;99.90;;;;;;5035730;28;20463;-62
2024/03/01 05:56:17;;;;;;;29.60;18.70;;;4.20;99.90;;;;;;5026383;28;20491;-62
2024/03/01 05:58:47;;;;;;;28.37;19.10;;;4.30;99.90;;;;;;5030848;28;20572;-63
2024/03/01 06:01:16;;;;;;;32.53;20.77;;;4.30;99.90;;;;;;5029994;28;20482;-62
2024/03/01 06:03:45;;;;;;;29.50;20.10;;;4.30;99.90;;;;;;5030966;28;20472;-62
2024/03/01 06:06:18;;;;;;;27.40;20.20;;;4.20;99.90;;;;;;5031586;28;21103;-64
2024/03/01 06:08:47;;;;;;;27.97;19.20;;;4.20;99.90;;;;;;5032474;28;20497;-62
2024/03/01 06:11:15;;;;;;;32.43;20.90;;;4.20;99.90;;;;;;5032607;28;20494;-62
2024/03/01 06:13:43;;;;;;;30.00;20.90;;;4.20;99.90;;;;;;5029722;28;20537;-61
2024/03/01 06:16:11;;;;;;;26.70;19.40;;;4.20;99.90;;;;;;5029250;28;20543;-62
2024/03/01 06:18:39;;;;;;;28.90;19.77;;;4.20;99.90;;;;;;5028239;28;20493;-63
2024/03/01 06:21:07;;;;;;;31.80;19.67;;;4.20;99.90;;;;;;5024352;28;20675;-63
2024/03/01 06:23:36;;;;;;;29.80;20.83;;;4.20;99.90;;;;;;5024944;28;20481;-63
2024/03/01 06:26:04;;;;;;;30.43;21.10;;;4.20;99.90;;;;;;5029831;28;20571;-62
2024/03/01 06:28:32;;;;;;;26.97;19.60;;;4.10;99.90;;;;;;5018817;28;20502;-62
2024/03/01 06:31:00;;;;;;;32.77;21.37;;;4.10;99.90;;;;;;5024838;28;20485;-63
2024/03/01 06:33:29;;;;;;;31.70;20.70;;;4.10;99.90;;;;;;5020777;28;20490;-61
2024/03/01 06:35:57;;;;;;;31.43;19.77;;;4.10;99.90;;;;;;5026101;28;20487;-62
2024/03/01 06:38:25;;;;;;;28.07;18.67;;;4.10;99.90;;;;;;5027626;28;20573;-62
2024/03/01 06:40:54;;;;;;;29.53;20.27;;;4.10;99.90;;;;;;5024344;28;20548;-63
2024/03/01 06:43:22;;;;;;;33.47;20.90;;;4.10;99.90;;;;;;5022709;28;20479;-62
2024/03/01 06:45:50;;;;;;;29.97;20.03;;;4.10;99.90;;;;;;5015743;28;21289;-64
2024/03/01 06:48:20;;;;;;;28.17;19.27;;;4.10;99.90;;;;;;5021599;28;20487;-63
2024/03/01 06:50:49;;;;;;;29.03;20.67;;;4.20;99.90;;;;;;5024913;28;20559;-62
2024/03/01 06:53:17;;;;;;;35.97;22.10;;;4.20;99.90;;;;;;5026930;28;20776;-62
2024/03/01 06:55:45;;;;;;;29.70;20.10;;;4.20;99.90;;;;;;5023016;28;21039;-62
2024/03/01 06:58:15;;;;;;;30.33;20.57;;;4.20;99.90;;;;;;5024018;28;20518;-63
2024/03/01 07:00:46;;;;;;;30.50;20.37;;;4.20;99.90;;;;;;5023089;28;21065;-62
2024/03/01 07:03:15;;;;;;;31.90;20.83;;;4.20;99.90;;;;;;5023898;28;20523;-61
2024/03/01 07:05:43;;;;;;;34.20;21.10;;;4.20;99.90;;;;;;5022153;28;20567;-62
2024/03/01 07:08:11;;;;;;;31.23;21.10;;;4.20;99.90;;;;;;5023024;28;20490;-63
2024/03/01 07:10:39;;;;;;;36.47;21.27;;;4.30;99.90;;;;;;5001083;28;20609;-62
2024/03/01 07:13:07;;;;;;;30.73;20.20;;;4.30;99.90;;;;;;5002414;28;20495;-63
2024/03/01 07:15:37;;;;;;;30.10;21.07;;;4.30;99.90;;;;;;4998606;28;21091;-64
2024/03/01 07:18:05;;;;;;;34.17;21.80;;;4.30;99.90;;;;;;5006930;28;21130;-62
2024/03/01 07:20:33;;;;;;;30.20;20.40;;;4.40;99.90;;;;;;5014396;28;20989;-62
2024/03/01 07:23:02;;;;;;;30.30;20.50;;;4.40;99.90;;;;;;5013917;28;20569;-63
2024/03/01 07:25:30;;;;;;;29.70;21.13;;;4.40;99.90;;;;;;5010167;28;20475;-63
2024/03/01 07:27:58;;;;;;;33.47;22.77;;;4.40;99.90;;;;;;5009354;28;20848;-63
2024/03/01 07:30:26;;;;;;;29.60;21.53;;;4.40;99.90;;;;;;5023879;28;20478;-61
2024/03/01 07:32:56;;;;;;;34.47;21.07;;;4.50;99.90;;;;;;5027749;28;20526;-61
2024/03/01 07:35:24;;;;;;;32.47;20.47;;;4.50;99.90;;;;;;5022528;28;20470;-60
2024/03/01 07:37:52;;;;;;;30.30;20.97;;;4.60;99.90;;;;;;5024698;28;20557;-61
2024/03/01 07:40:19;;;;;;;29.00;20.67;;;4.60;99.90;;;;;;5027656;28;20477;-61
2024/03/01 07:42:47;;;;;;;28.80;20.40;;;4.60;99.90;;;;;;5033231;28;20470;-61
2024/03/01 07:45:16;;;;;;;29.07;21.50;;;4.60;99.90;;;;;;5027126;28;20467;-60
2024/03/01 07:47:46;;;;;;;31.90;20.90;;;4.60;99.90;;;;;;5034212;28;20866;-60
2024/03/01 07:50:16;;;;;;;31.70;21.17;;;4.70;99.90;;;;;;5031685;28;20948;-61
2024/03/01 07:52:44;;;;;;;33.27;19.70;;;4.70;99.90;;;;;;5034034;28;20482;-61
2024/03/01 07:55:12;;;;;;;34.17;22.07;;;4.80;99.90;;;;;;5033025;28;20506;-61
2024/03/01 07:57:41;;;;;;;33.43;21.40;;;4.80;99.90;;;;;;5033214;28;20474;-61
2024/03/01 08:00:10;;;;;;;34.40;20.90;;;4.80;99.90;;;;;;5026232;28;21011;-61
2024/03/01 08:02:38;;;;;;;30.63;21.10;;;4.90;99.90;;;;;;5031701;28;20458;-61
2024/03/01 08:05:09;;;;;;;33.13;21.43;;;4.90;99.90;;;;;;5023113;28;20470;-60
2024/03/01 08:07:38;;;;;;;31.90;19.97;;;5.00;99.90;;;;;;5020577;28;20474;-60
2024/03/01 08:10:11;;;;;;;30.50;20.13;;;5.00;99.90;;;;;;5024780;28;20490;-61
2024/03/01 08:12:39;;;;;;;30.40;20.40;;;5.10;99.90;;;;;;5026084;28;20494;-61
2024/03/01 08:15:15;;;;;;;31.00;20.97;;;5.10;99.90;;;;;;5027065;28;20577;-61
2024/03/01 08:17:43;;;;;;;30.77;21.17;;;5.20;99.90;;;;;;5024572;28;20478;-61
2024/03/01 08:20:30;;;;;;;32.20;20.23;;;5.20;99.90;;;;;;5030276;28;20463;-61
2024/03/01 08:22:59;;;;;;;29.17;19.17;;;5.20;99.90;;;;;;5020921;28;20550;-61
2024/03/01 08:25:27;;;;;;;30.50;20.47;;;5.30;99.90;;;;;;5025659;28;20582;-60
2024/03/01 08:27:58;;;;;;;29.47;19.23;;;5.30;99.90;;;;;;5025749;28;20477;-60
2024/03/01 08:30:42;;;;;;;35.27;21.90;;;5.40;99.90;;;;;;5028110;28;20517;-60
2024/03/01 08:33:12;;;;;;;28.17;19.37;;;5.40;99.90;;;;;;5026578;28;20491;-61
2024/03/01 08:35:41;;;;;;;28.57;19.70;;;5.50;99.90;;;;;;5026212;28;20478;-61
2024/03/01 08:38:51;;;;;;;33.10;20.53;;;5.50;99.90;;;;;;5028820;28;20486;-61
2024/03/01 08:41:20;;;;;;;27.40;19.77;;;5.60;99.90;;;;;;4989493;28;20484;-60
2024/03/01 08:43:49;;;;;;;31.60;19.10;;;5.70;99.90;;;;;;5024920;28;20960;-61
2024/03/01 08:46:27;;;;;;;29.63;19.17;;;5.70;99.90;;;;;;5028357;28;20531;-60
2024/03/01 08:48:55;;;;;;;30.20;20.70;;;5.70;99.90;;;;;;5026845;28;20489;-61
2024/03/01 08:51:23;;;;;;;27.83;18.20;;;5.80;99.90;;;;;;5024802;28;20475;-61
2024/03/01 08:54:02;;;;;;;29.60;19.50;;;5.80;99.90;;;;;;5027056;28;20889;-61
2024/03/01 08:56:36;;;;;;;31.23;20.17;;;5.90;99.90;;;;;;5028273;28;20604;-61
2024/03/01 08:59:29;;;;;;;27.80;19.80;;;6.00;99.90;;;;;;5027054;28;20564;-60
2024/03/01 09:01:57;;;;;;;29.07;20.37;;;6.00;99.90;;;;;;5030099;28;20840;-60
2024/03/01 09:04:31;;;;;;;30.60;19.37;;;6.10;99.90;;;;;;5031130;28;20908;-62
2024/03/01 09:07:08;;;;;;;30.60;19.10;;;6.20;99.90;;;;;;5032994;28;20501;-59
2024/03/01 09:09:39;;;;;;;29.60;19.60;;;6.30;99.90;;;;;;5028944;28;20490;-57
2024/03/01 09:12:15;;;;;;;26.83;20.77;;;6.30;99.90;;;;;;5025111;28;20838;-61
2024/03/01 09:14:43;;;;;;;28.40;18.90;;;6.40;99.90;;;;;;5030917;28;20486;-62
2024/03/01 09:17:13;;;;;;;31.60;20.53;;;6.40;99.90;;;;;;5029152;28;20906;-59
2024/03/01 09:19:46;;;;;;;27.20;19.20;;;6.50;99.90;;;;;;5032248;28;20579;-57
2024/03/01 09:22:16;;;;;;;27.70;19.00;;;6.60;99.90;;;;;;5032151;28;20562;-59
2024/03/01 09:24:44;;;;;;;28.63;19.63;;;6.60;99.90;;;;;;5033531;28;21038;-59
2024/03/01 09:27:29;;;;;;;30.80;19.80;;;6.70;99.90;;;;;;5029197;28;20571;-59
2024/03/01 09:29:58;;;;;;;30.03;18.70;;;6.80;99.90;;;;;;5028473;28;20493;-59
2024/03/01 09:32:26;;;;;;;27.60;18.80;;;6.90;99.90;;;;;;5031889;28;20466;-59
2024/03/01 09:34:55;;;;;;;28.00;19.13;;;6.90;99.90;;;;;;5027608;28;20841;-59
2024/03/01 09:37:23;;;;;;;28.80;18.60;;;7.00;99.90;;;;;;5026930;28;20483;-58
2024/03/01 09:39:51;;;;;;;26.40;19.77;;;7.00;99.90;;;;;;5031751;28;20583;-59
2024/03/01 09:42:37;;;;;;;27.10;18.77;;;7.10;99.90;;;;;;5029339;28;20479;-59
2024/03/01 09:45:45;;;;;;;28.23;18.70;;;7.20;99.90;;;;;;5027482;28;20463;-59
2024/03/01 09:48:43;;;;;;;28.63;19.23;;;7.30;99.90;;;;;;5025774;28;20589;-58
2024/03/01 09:51:34;;;;;;;28.10;18.07;;;7.40;99.90;;;;;;5021945;28;20470;-59
2024/03/01 09:54:16;;;;;;;26.83;18.50;;;7.50;99.90;;;;;;5026893;28;20505;-59
2024/03/01 09:57:01;;;;;;;26.43;18.43;;;7.60;99.90;;;;;;5024276;28;20479;-59
2024/03/01 09:59:38;;;;;;;27.30;19.27;;;7.60;99.90;;;;;;5023692;28;20615;-58
2024/03/01 10:02:18;;;;;;;28.10;18.53;;;7.80;99.90;;;;;;5019586;28;20524;-58
2024/03/01 10:04:58;;;;;;;28.70;18.60;;;7.80;99.90;;;;;;5021882;28;21075;-58
2024/03/01 10:07:35;;;;;;;28.33;19.20;;;7.90;99.90;;;;;;5027745;28;20543;-59
2024/03/01 10:10:32;;;;;;;24.87;18.10;;;8.00;99.90;;;;;;5020965;28;20526;-58
2024/03/01 10:13:09;;;;;;;25.20;17.60;;;8.10;99.90;;;;;;5019006;28;20473;-59
2024/03/01 10:15:44;;;;;;;25.00;18.10;;;8.20;99.90;;;;;;5025413;28;20474;-57
2024/03/01 10:18:29;;;;;;;25.63;17.77;;;8.30;99.90;;;;;;5023631;28;20593;-59
2024/03/01 10:21:12;;;;;;;26.70;19.60;;;8.40;99.90;;;;;;5025466;28;20547;-58
2024/03/01 10:23:51;;;;;;;28.33;18.60;;;8.50;99.90;;;;;;5023970;28;20503;-57
2024/03/01 10:26:27;;;;;;;22.87;17.33;;;8.60;99.90;;;;;;5019985;28;20593;-58
2024/03/01 10:29:09;;;;;;;23.93;18.10;;;8.80;99.90;;;;;;5022229;28;20583;-58
2024/03/01 10:31:51;;;;;;;25.40;18.00;;;8.90;99.90;;;;;;5025917;28;20945;-58
2024/03/01 10:34:25;;;;;;;27.23;19.03;;;9.10;99.90;;;;;;5025633;28;20498;-58
2024/03/01 10:36:55;;;;;;;23.67;17.47;;;9.20;99.90;;;;;;5026985;28;20556;-58
2024/03/01 10:39:32;;;;;;;26.50;18.03;;;9.30;99.90;;;;;;5020974;28;20595;-58
2024/03/01 10:42:11;;;;;;;24.60;17.90;;;9.40;99.90;;;;;;5027535;28;20546;-59
2024/03/01 10:44:48;;;;;;;23.00;17.63;;;9.60;99.90;;;;;;5025085;28;20544;-59
2024/03/01 10:47:22;;;;;;;23.80;17.30;;;9.60;99.90;;;;;;5022741;28;20576;-59
2024/03/01 10:50:19;;;;;;;24.03;16.30;;;9.70;99.90;;;;;;5025756;28;20499;-59
2024/03/01 10:52:54;;;;;;;25.27;16.97;;;9.70;99.90;;;;;;5025642;28;20470;-59
2024/03/01 10:55:24;;;;;;;20.87;16.17;;;9.80;99.90;;;;;;5023705;28;20589;-59
2024/03/01 10:57:59;;;;;;;23.63;17.30;;;9.80;99.90;;;;;;5025175;28;20481;-59
2024/03/01 11:00:28;;;;;;;21.77;16.47;;;9.90;99.90;;;;;;5027157;28;21542;-60
2024/03/01 11:03:13;;;;;;;22.70;17.30;;;10.00;99.90;;;;;;5027191;28;20487;-60
2024/03/01 11:05:49;;;;;;;26.03;17.73;;;10.20;99.90;;;;;;5024657;28;20475;-60
2024/03/01 11:08:27;;;;;;;24.60;17.30;;;10.20;99.90;;;;;;5022339;28;20500;-60
2024/03/01 11:11:01;;;;;;;23.87;16.47;;;10.30;99.90;;;;;;5022193;28;21059;-59
2024/03/01 11:13:33;;;;;;;23.90;16.70;;;10.40;99.90;;;;;;5020214;28;20471;-59
2024/03/01 11:16:05;;;;;;;22.90;16.93;;;10.40;99.90;;;;;;5020783;28;20849;-60
2024/03/01 11:18:39;;;;;;;25.20;17.60;;;10.40;99.90;;;;;;5024420;28;20497;-60
2024/03/01 11:21:11;;;;;;;23.67;17.43;;;10.50;99.90;;;;;;5021483;28;20475;-60
2024/03/01 11:23:43;;;;;;;19.67;15.47;;;10.60;99.90;;;;;;5019212;28;20474;-60
2024/03/01 11:26:18;;;;;;;19.33;15.50;;;10.60;99.90;;;;;;5017774;28;20501;-61
2024/03/01 11:28:50;;;;;;;22.40;15.70;;;10.70;99.90;;;;;;5025857;28;20494;-61
2024/03/01 11:31:20;;;;;;;20.00;15.77;;;10.80;99.90;;;;;;5009380;28;20472;-59
2024/03/01 11:33:52;;;;;;;22.33;16.70;;;10.80;99.90;;;;;;5007355;28;20574;-59
2024/03/01 11:36:41;;;;;;;21.30;16.43;;;10.80;99.90;;;;;;5003856;28;20481;-60
2024/03/01 11:39:23;;;;;;;21.40;14.63;;;10.80;99.90;;;;;;5010407;28;20509;-60
2024/03/01 11:41:53;;;;;;;18.87;14.80;;;10.80;99.90;;;;;;5004707;28;20639;-61
2024/03/01 11:44:33;;;;;;;20.17;15.40;;;10.80;99.90;;;;;;5000403;28;20558;-60
2024/03/01 11:47:08;;;;;;;21.03;15.63;;;10.70;99.90;;;;;;5006611;28;20977;-61
2024/03/01 11:49:52;;;;;;;20.47;14.83;;;10.70;99.90;;;;;;5010286;28;21513;-59
2024/03/01 11:52:53;;;;;;;18.63;14.80;;;10.70;99.90;;;;;;5008269;28;20842;-61
2024/03/01 11:55:33;;;;;;;22.37;15.87;;;10.70;99.90;;;;;;5001953;28;21702;-60
2024/03/01 11:58:13;;;;;;;17.30;14.43;;;10.70;99.90;;;;;;5008307;28;20606;-61
2024/03/01 12:00:55;;;;;;;17.33;14.40;;;10.70;99.90;;;;;;5008396;28;21059;-59
2024/03/01 12:03:59;;;;;;;21.47;14.50;;;10.70;99.90;;;;;;5008298;28;20593;-61
2024/03/01 12:06:49;;;;;;;20.63;15.47;;;10.70;99.90;;;;;;5006311;28;21025;-60
2024/03/01 12:09:25;;;;;;;18.47;14.57;;;10.80;99.90;;;;;;5008898;28;20585;-60
2024/03/01 12:12:09;;;;;;;19.80;14.67;;;10.90;99.90;;;;;;5004357;28;20551;-59
2024/03/01 12:14:41;;;;;;;18.30;13.90;;;10.90;99.90;;;;;;5008365;28;20530;-61
2024/03/01 12:17:14;;;;;;;20.03;14.90;;;11.00;99.90;;;;;;5015496;28;20487;-61
2024/03/01 12:19:49;;;;;;;17.37;13.87;;;11.00;99.90;;;;;;5010394;28;20625;-60
2024/03/01 12:22:37;;;;;;;15.17;12.87;;;11.10;99.90;;;;;;5027143;28;20467;-60
2024/03/01 12:25:06;;;;;;;14.30;12.80;;;11.20;99.90;;;;;;5026048;28;20477;-59
2024/03/01 12:27:49;;;;;;;13.90;10.87;;;11.40;99.90;;;;;;5025740;28;20475;-61
2024/03/01 12:30:26;;;;;;;13.90;11.00;;;11.50;99.90;;;;;;5019404;28;20470;-61
2024/03/01 12:33:18;;;;;;;13.47;10.90;;;11.70;99.90;;;;;;5027134;28;21357;-62
2024/03/01 12:35:56;;;;;;;15.37;12.27;;;11.80;99.90;;;;;;5028553;28;20491;-63
2024/03/01 12:38:30;;;;;;;14.70;11.93;;;11.90;99.90;;;;;;5014540;28;20494;-63
2024/03/01 12:41:12;;;;;;;13.03;10.90;;;12.10;99.90;;;;;;5005852;28;20481;-62
2024/03/01 12:43:59;;;;;;;13.73;11.07;;;12.00;99.90;;;;;;5008340;28;20979;-63
2024/03/01 12:46:56;;;;;;;13.30;11.43;;;12.00;99.90;;;;;;5009778;28;20482;-61
2024/03/01 12:49:34;;;;;;;13.73;11.20;;;11.90;99.90;;;;;;5009460;28;20865;-61
2024/03/01 12:52:14;;;;;;;14.00;10.97;;;11.90;99.90;;;;;;5008011;28;20473;-63
2024/03/01 12:54:50;;;;;;;15.67;11.50;;;11.90;99.90;;;;;;5023297;28;20497;-60
2024/03/01 12:57:27;;;;;;;16.37;12.83;;;11.90;99.90;;;;;;5022237;28;20593;-61
2024/03/01 13:00:13;;;;;;;19.13;11.20;;;11.90;99.90;;;;;;5025514;28;20517;-61